createdAt,value
2018-04-11T00:00:59.281Z,999.86
2018-04-11T00:01:59.278Z,999.83
2018-04-11T00:02:59.287Z,999.84
2018-04-11T00:03:59.295Z,999.84
2018-04-11T00:04:59.298Z,999.84
2018-04-11T00:05:59.301Z,999.87
2018-04-11T00:06:59.313Z,999.86
2018-04-11T00:07:59.325Z,999.87
2018-04-11T00:08:59.372Z,999.88
2018-04-11T00:09:59.310Z,999.91
2018-04-11T00:10:59.333Z,999.91
2018-04-11T00:11:59.322Z,999.88
2018-04-11T00:12:59.332Z,999.88
2018-04-11T00:13:59.331Z,999.82
2018-04-11T00:14:59.329Z,999.82
2018-04-11T00:15:59.330Z,999.82
2018-04-11T00:16:59.333Z,999.86
2018-04-11T00:17:59.347Z,999.86
2018-04-11T00:18:59.356Z,999.85
2018-04-11T00:19:59.355Z,999.86
2018-04-11T00:20:59.353Z,999.83
2018-04-11T00:21:59.344Z,999.77
2018-04-11T00:22:59.361Z,999.80
2018-04-11T00:23:59.374Z,999.81
2018-04-11T00:24:59.360Z,999.79
2018-04-11T00:25:59.368Z,999.84
2018-04-11T00:26:59.399Z,999.88
2018-04-11T00:27:59.378Z,999.90
2018-04-11T00:28:59.385Z,999.92
2018-04-11T00:29:59.384Z,999.91
2018-04-11T00:30:59.388Z,999.96
2018-04-11T00:31:59.456Z,999.98
2018-04-11T00:32:59.385Z,999.96
2018-04-11T00:33:59.392Z,999.96
2018-04-11T00:34:59.391Z,999.96
2018-04-11T00:35:59.397Z,999.91
2018-04-11T00:36:59.398Z,999.90
2018-04-11T00:37:59.403Z,999.92
2018-04-11T00:38:59.398Z,999.92
2018-04-11T00:39:59.406Z,999.90
2018-04-11T00:40:59.403Z,999.95
2018-04-11T00:41:59.411Z,999.94
2018-04-11T00:42:59.428Z,999.98
2018-04-11T00:43:59.432Z,999.96
2018-04-11T00:44:59.435Z,999.96
2018-04-11T00:45:59.426Z,999.92
2018-04-11T00:46:59.428Z,999.97
2018-04-11T00:47:59.441Z,999.96
2018-04-11T00:49:00.397Z,999.98
2018-04-11T00:49:59.451Z,999.97
2018-04-11T00:50:59.466Z,1000.00
2018-04-11T00:51:59.453Z,1000.03
2018-04-11T00:52:59.526Z,1000.05
2018-04-11T00:53:59.483Z,1000.04
2018-04-11T00:54:59.467Z,1000.06
2018-04-11T00:55:59.465Z,1000.08
2018-04-11T00:56:59.465Z,1000.06
2018-04-11T00:57:59.467Z,1000.07
2018-04-11T00:58:59.473Z,1000.05
2018-04-11T00:59:59.469Z,1000.06
2018-04-11T01:00:59.482Z,1000.11
2018-04-11T01:01:59.490Z,1000.11
2018-04-11T01:02:59.487Z,1000.12
2018-04-11T01:03:59.496Z,1000.12
2018-04-11T01:04:59.483Z,1000.13
2018-04-11T01:05:59.494Z,1000.11
2018-04-11T01:06:59.498Z,1000.13
2018-04-11T01:07:59.510Z,1000.14
2018-04-11T01:08:59.508Z,1000.12
2018-04-11T01:09:59.501Z,1000.13
2018-04-11T01:10:59.513Z,1000.15
2018-04-11T01:11:59.535Z,1000.15
2018-04-11T01:12:59.553Z,1000.19
2018-04-11T01:13:59.536Z,1000.14
2018-04-11T01:14:59.523Z,1000.15
2018-04-11T01:15:59.535Z,1000.14
2018-04-11T01:16:59.529Z,1000.10
2018-04-11T01:17:59.532Z,1000.08
2018-04-11T01:18:59.537Z,1000.09
2018-04-11T01:19:59.558Z,1000.11
2018-04-11T01:20:59.543Z,1000.13
2018-04-11T01:21:59.547Z,1000.09
2018-04-11T01:22:59.555Z,1000.08
2018-04-11T01:23:59.543Z,1000.07
2018-04-11T01:24:59.569Z,1000.06
2018-04-11T01:25:59.571Z,1000.09
2018-04-11T01:26:59.564Z,1000.12
2018-04-11T01:27:59.555Z,1000.15
2018-04-11T01:28:59.575Z,1000.08
2018-04-11T01:29:59.569Z,1000.09
2018-04-11T01:30:59.567Z,1000.07
2018-04-11T01:31:59.577Z,1000.10
2018-04-11T01:32:59.581Z,1000.14
2018-04-11T01:33:59.591Z,1000.19
2018-04-11T01:34:59.587Z,1000.26
2018-04-11T01:35:59.595Z,1000.21
2018-04-11T01:36:59.590Z,1000.24
2018-04-11T01:37:59.598Z,1000.21
2018-04-11T01:38:59.610Z,1000.20
2018-04-11T01:39:59.600Z,1000.18
2018-04-11T01:40:59.596Z,1000.18
2018-04-11T01:41:59.625Z,1000.16
2018-04-11T01:42:59.673Z,1000.17
2018-04-11T01:43:59.605Z,1000.14
2018-04-11T01:44:59.653Z,1000.11
2018-04-11T01:45:59.623Z,1000.15
2018-04-11T01:46:59.630Z,1000.13
2018-04-11T01:47:59.630Z,1000.17
2018-04-11T01:48:59.631Z,1000.24
2018-04-11T01:49:59.629Z,1000.24
2018-04-11T01:50:59.638Z,1000.25
2018-04-11T01:51:59.635Z,1000.25
2018-04-11T01:52:59.641Z,1000.23
2018-04-11T01:53:59.648Z,1000.17
2018-04-11T01:54:59.635Z,1000.18
2018-04-11T01:55:59.661Z,1000.16
2018-04-11T01:56:59.651Z,1000.17
2018-04-11T01:57:59.666Z,1000.21
2018-04-11T01:58:59.670Z,1000.20
2018-04-11T01:59:59.664Z,1000.17
2018-04-11T02:00:59.660Z,1000.20
2018-04-11T02:01:59.662Z,1000.17
2018-04-11T02:02:59.666Z,1000.18
2018-04-11T02:03:59.676Z,1000.16
2018-04-11T02:04:59.666Z,1000.12
2018-04-11T02:05:59.679Z,1000.07
2018-04-11T02:06:59.676Z,1000.06
2018-04-11T02:07:59.689Z,1000.03
2018-04-11T02:08:59.696Z,1000.07
2018-04-11T02:09:59.702Z,1000.10
2018-04-11T02:10:59.703Z,1000.17
2018-04-11T02:11:59.695Z,1000.20
2018-04-11T02:12:59.720Z,1000.20
2018-04-11T02:13:59.707Z,1000.16
2018-04-11T02:14:59.699Z,1000.09
2018-04-11T02:15:59.702Z,1000.09
2018-04-11T02:16:59.719Z,1000.07
2018-04-11T02:17:59.719Z,1000.06
2018-04-11T02:18:59.720Z,1000.05
2018-04-11T02:19:59.715Z,1000.07
2018-04-11T02:20:59.735Z,1000.07
2018-04-11T02:21:59.735Z,1000.07
2018-04-11T02:22:59.723Z,1000.15
2018-04-11T02:23:59.729Z,1000.17
2018-04-11T02:25:00.426Z,1000.14
2018-04-11T02:25:59.731Z,1000.11
2018-04-11T02:26:59.751Z,1000.13
2018-04-11T02:27:59.746Z,1000.12
2018-04-11T02:28:59.742Z,1000.09
2018-04-11T02:29:59.745Z,1000.05
2018-04-11T02:30:59.806Z,1000.02
2018-04-11T02:31:59.774Z,1000.02
2018-04-11T02:32:59.764Z,1000.03
2018-04-11T02:33:59.757Z,1000.06
2018-04-11T02:35:00.426Z,1000.09
2018-04-11T02:35:59.768Z,1000.16
2018-04-11T02:36:59.788Z,1000.15
2018-04-11T02:37:59.765Z,1000.18
2018-04-11T02:38:59.768Z,1000.17
2018-04-11T02:39:59.788Z,1000.23
2018-04-11T02:40:59.785Z,1000.22
2018-04-11T02:41:59.784Z,1000.21
2018-04-11T02:42:59.789Z,1000.17
2018-04-11T02:43:59.794Z,1000.18
2018-04-11T02:44:59.787Z,1000.16
2018-04-11T02:45:59.799Z,1000.19
2018-04-11T02:46:59.824Z,1000.22
2018-04-11T02:47:59.816Z,1000.29
2018-04-11T02:48:59.814Z,1000.27
2018-04-11T02:49:59.801Z,1000.29
2018-04-11T02:50:59.800Z,1000.27
2018-04-11T02:51:59.807Z,1000.24
2018-04-11T02:52:59.834Z,1000.26
2018-04-11T02:53:59.907Z,1000.28
2018-04-11T02:54:59.813Z,1000.29
2018-04-11T02:55:59.811Z,1000.27
2018-04-11T02:56:59.827Z,1000.31
2018-04-11T02:57:59.840Z,1000.32
2018-04-11T02:58:59.834Z,1000.29
2018-04-11T02:59:59.830Z,1000.27
2018-04-11T03:00:59.830Z,1000.29
2018-04-11T03:01:59.839Z,1000.30
2018-04-11T03:02:59.871Z,1000.37
2018-04-11T03:03:59.846Z,1000.32
2018-04-11T03:04:59.845Z,1000.31
2018-04-11T03:05:59.839Z,1000.35
2018-04-11T03:06:59.849Z,1000.36
2018-04-11T03:07:59.852Z,1000.40
2018-04-11T03:08:59.852Z,1000.45
2018-04-11T03:09:59.858Z,1000.45
2018-04-11T03:10:59.861Z,1000.40
2018-04-11T03:11:59.872Z,1000.42
2018-04-11T03:12:59.870Z,1000.39
2018-04-11T03:13:59.875Z,1000.43
2018-04-11T03:14:59.905Z,1000.47
2018-04-11T03:15:59.873Z,1000.46
2018-04-11T03:16:59.884Z,1000.43
2018-04-11T03:17:59.882Z,1000.29
2018-04-11T03:18:59.902Z,1000.36
2018-04-11T03:19:59.879Z,1000.38
2018-04-11T03:20:59.927Z,1000.33
2018-04-11T03:21:59.898Z,1000.41
2018-04-11T03:22:59.887Z,1000.41
2018-04-11T03:24:35.512Z,1000.39
2018-04-11T03:26:34.497Z,1000.42
2018-04-11T03:28:08.495Z,1000.45
2018-04-11T03:28:32.010Z,1000.46
2018-04-11T03:29:32.011Z,1000.45
2018-04-11T03:32:11.714Z,1000.48
2018-04-11T03:46:59.789Z,1000.59
2018-04-11T03:47:59.761Z,1000.61
2018-04-11T03:49:00.252Z,1000.56
2018-04-11T03:50:01.291Z,1000.55
2018-04-11T03:51:06.756Z,1000.60
2018-04-11T03:52:05.246Z,1000.59
2018-04-11T03:52:59.796Z,1000.59
2018-04-11T03:53:59.761Z,1000.62
2018-04-11T03:54:59.780Z,1000.66
2018-04-11T03:55:59.776Z,1000.65
2018-04-11T03:57:59.773Z,1000.66
2018-04-11T03:59:59.776Z,1000.65
2018-04-11T04:02:31.935Z,1000.72
2018-04-11T04:03:31.898Z,1000.74
2018-04-11T04:04:31.907Z,1000.80
2018-04-11T04:05:31.921Z,1000.79
2018-04-11T04:06:31.898Z,1000.79
2018-04-11T04:07:31.905Z,1000.81
2018-04-11T04:08:31.896Z,1000.85
2018-04-11T04:09:31.905Z,1000.88
2018-04-11T04:10:31.910Z,1000.89
2018-04-11T04:11:31.912Z,1000.93
2018-04-11T04:12:31.921Z,1000.88
2018-04-11T04:13:31.919Z,1000.86
2018-04-11T04:14:31.921Z,1000.82
2018-04-11T04:15:31.923Z,1000.82
2018-04-11T04:16:31.926Z,1000.85
2018-04-11T04:17:31.927Z,1000.85
2018-04-11T04:18:32.883Z,1000.82
2018-04-11T04:19:31.931Z,1000.85
2018-04-11T04:20:31.932Z,1000.82
2018-04-11T04:21:31.944Z,1000.89
2018-04-11T04:22:31.943Z,1000.87
2018-04-11T04:23:31.930Z,1000.92
2018-04-11T04:24:31.944Z,1000.92
2018-04-11T04:25:31.950Z,1000.92
2018-04-11T04:26:31.953Z,1000.93
2018-04-11T04:27:31.941Z,1000.93
2018-04-11T04:28:31.952Z,1000.96
2018-04-11T04:29:31.960Z,1000.96
2018-04-11T04:30:32.005Z,1000.94
2018-04-11T04:31:31.959Z,1000.93
2018-04-11T04:32:31.962Z,1000.93
2018-04-11T04:33:31.965Z,1000.91
2018-04-11T04:34:31.969Z,1000.94
2018-04-11T04:35:31.978Z,1000.92
2018-04-11T04:36:31.970Z,1000.93
2018-04-11T04:37:31.968Z,1000.93
2018-04-11T04:38:32.896Z,1000.90
2018-04-11T04:39:32.885Z,1000.94
2018-04-11T04:40:31.975Z,1000.86
2018-04-11T04:41:31.991Z,1000.88
2018-04-11T04:42:31.983Z,1000.93
2018-04-11T04:43:31.998Z,1000.98
2018-04-11T04:44:31.993Z,1001.05
2018-04-11T04:45:32.000Z,1001.00
2018-04-11T04:46:32.007Z,1001.01
2018-04-11T04:47:31.996Z,1001.03
2018-04-11T04:48:32.006Z,1001.04
2018-04-11T04:49:31.997Z,1001.04
2018-04-11T04:50:31.997Z,1001.06
2018-04-11T04:51:32.021Z,1001.10
2018-04-11T04:52:32.015Z,1001.10
2018-04-11T04:53:32.000Z,1001.11
2018-04-11T04:54:32.022Z,1001.09
2018-04-11T04:55:32.016Z,1001.10
2018-04-11T04:56:32.006Z,1001.09
2018-04-11T04:57:32.025Z,1001.08
2018-04-11T04:58:32.025Z,1001.06
2018-04-11T04:59:32.011Z,1001.07
2018-04-11T05:00:32.033Z,1001.08
2018-04-11T05:01:32.025Z,1001.09
2018-04-11T05:02:32.028Z,1001.09
2018-04-11T05:03:32.032Z,1001.14
2018-04-11T05:04:32.035Z,1001.14
2018-04-11T05:05:32.046Z,1001.18
2018-04-11T05:06:32.894Z,1001.19
2018-04-11T05:07:32.039Z,1001.17
2018-04-11T05:10:05.132Z,1001.20
2018-04-11T05:11:04.633Z,1001.22
2018-04-11T05:12:05.135Z,1001.23
2018-04-11T05:13:05.139Z,1001.27
2018-04-11T05:14:04.153Z,1001.26
2018-04-11T05:15:05.146Z,1001.28
2018-04-11T05:16:06.141Z,1001.29
2018-04-11T05:17:04.219Z,1001.28
2018-04-11T05:18:05.136Z,1001.27
2018-04-11T05:19:04.161Z,1001.26
2018-04-11T05:20:05.163Z,1001.28
2018-04-11T05:21:06.139Z,1001.26
2018-04-11T05:22:06.134Z,1001.30
2018-04-11T05:23:05.632Z,1001.39
2018-04-11T05:24:05.148Z,1001.40
2018-04-11T05:25:04.183Z,1001.41
2018-04-11T05:26:04.719Z,1001.44
2018-04-11T05:27:05.153Z,1001.47
2018-04-11T05:28:05.143Z,1001.48
2018-04-11T05:29:05.145Z,1001.51
2018-04-11T05:30:05.136Z,1001.54
2018-04-11T05:31:05.631Z,1001.57
2018-04-11T05:32:05.136Z,1001.55
2018-04-11T05:33:05.632Z,1001.66
2018-04-11T05:34:05.138Z,1001.68
2018-04-11T05:35:05.636Z,1001.70
2018-04-11T05:36:04.239Z,1001.74
2018-04-11T05:37:05.153Z,1001.71
2018-04-11T05:38:05.141Z,1001.79
2018-04-11T05:39:05.138Z,1001.79
2018-04-11T05:40:04.282Z,1001.81
2018-04-11T05:41:05.214Z,1001.83
2018-04-11T05:42:05.140Z,1001.89
2018-04-11T05:43:05.136Z,1001.93
2018-04-11T05:44:05.137Z,1001.94
2018-04-11T05:45:05.160Z,1001.94
2018-04-11T05:46:04.220Z,1001.94
2018-04-11T05:47:05.149Z,1001.91
2018-04-11T05:48:04.216Z,1001.90
2018-04-11T05:49:04.248Z,1001.91
2018-04-11T05:50:04.228Z,1001.90
2018-04-11T05:51:04.251Z,1001.84
2018-04-11T05:52:05.144Z,1001.87
2018-04-11T05:53:05.143Z,1001.86
2018-04-11T05:54:04.238Z,1001.91
2018-04-11T05:55:04.246Z,1001.91
2018-04-11T05:56:04.247Z,1001.96
2018-04-11T05:57:04.246Z,1001.96
2018-04-11T05:58:04.264Z,1001.95
2018-04-11T05:59:04.250Z,1002.01
2018-04-11T06:00:04.260Z,1002.04
2018-04-11T06:01:04.304Z,1002.07
2018-04-11T06:02:04.271Z,1002.06
2018-04-11T06:03:05.173Z,1002.06
2018-04-11T06:04:04.273Z,1002.05
2018-04-11T06:05:04.263Z,1002.06
2018-04-11T06:06:04.261Z,1002.06
2018-04-11T06:07:04.279Z,1002.09
2018-04-11T06:08:04.274Z,1002.10
2018-04-11T06:09:04.263Z,1002.15
2018-04-11T06:10:04.291Z,1002.11
2018-04-11T06:11:04.282Z,1002.18
2018-04-11T06:12:04.300Z,1002.15
2018-04-11T06:13:04.318Z,1002.19
2018-04-11T06:14:04.820Z,1002.29
2018-04-11T06:15:04.311Z,1002.29
2018-04-11T06:16:04.306Z,1002.36
2018-04-11T06:17:04.359Z,1002.44
2018-04-11T06:18:04.296Z,1002.57
2018-04-11T06:19:04.309Z,1002.59
2018-04-11T06:20:04.310Z,1002.64
2018-04-11T06:21:04.316Z,1002.72
2018-04-11T06:22:04.312Z,1002.81
2018-04-11T06:23:04.337Z,1002.78
2018-04-11T06:24:05.148Z,1002.94
2018-04-11T06:25:04.309Z,1003.11
2018-04-11T06:26:04.419Z,1003.35
2018-04-11T06:27:04.334Z,1003.75
2018-04-11T06:28:04.500Z,1004.07
2018-04-11T06:29:04.356Z,1003.96
2018-04-11T06:30:04.344Z,1004.26
2018-04-11T06:31:04.359Z,1004.90
2018-04-11T06:32:04.360Z,1006.03
2018-04-11T06:33:04.340Z,1007.03
2018-04-11T06:34:04.372Z,1006.92
2018-04-11T06:35:04.364Z,1007.65
2018-04-11T06:36:04.380Z,1006.19
2018-04-11T06:37:04.396Z,1004.56
2018-04-11T06:38:04.416Z,1004.60
2018-04-11T06:39:04.388Z,1004.43
2018-04-11T06:40:04.388Z,1004.53
2018-04-11T06:41:04.434Z,1004.24
2018-04-11T06:42:04.432Z,1004.17
2018-04-11T06:43:04.386Z,1004.52
2018-04-11T06:44:04.398Z,1004.61
2018-04-11T06:45:04.424Z,1004.44
2018-04-11T06:46:04.462Z,1004.10
2018-04-11T06:47:05.250Z,1003.88
2018-04-11T06:48:04.461Z,1004.00
2018-04-11T06:49:06.867Z,1004.15
2018-04-11T06:50:04.466Z,1004.00
2018-04-11T06:51:04.504Z,1003.78
2018-04-11T06:52:04.598Z,1003.80
2018-04-11T06:53:04.421Z,1003.67
2018-04-11T06:54:04.477Z,1003.61
2018-04-11T06:55:04.437Z,1003.46
2018-04-11T06:56:04.460Z,1003.50
2018-04-11T06:57:04.459Z,1003.41
2018-04-11T06:58:04.452Z,1003.53
2018-04-11T06:59:04.462Z,1003.58
2018-04-11T07:00:04.479Z,1003.55
2018-04-11T07:01:04.592Z,1003.61
2018-04-11T07:02:04.489Z,1003.57
2018-04-11T07:03:04.497Z,1003.74
2018-04-11T07:04:04.560Z,1003.80
2018-04-11T07:05:04.508Z,1003.91
2018-04-11T07:06:04.511Z,1003.74
2018-04-11T07:07:04.537Z,1003.79
2018-04-11T07:08:04.511Z,1003.76
2018-04-11T07:09:04.504Z,1003.81
2018-04-11T07:10:04.523Z,1003.82
2018-04-11T07:11:04.544Z,1003.92
2018-04-11T07:12:05.257Z,1004.02
2018-04-11T07:13:04.538Z,1003.96
2018-04-11T07:14:05.261Z,1004.08
2018-04-11T07:15:04.563Z,1004.05
2018-04-11T07:16:04.549Z,1004.10
2018-04-11T07:17:04.541Z,1004.03
2018-04-11T07:18:04.558Z,1004.31
2018-04-11T07:19:04.639Z,1004.27
2018-04-11T07:20:04.621Z,1004.20
2018-04-11T07:21:04.595Z,1004.39
2018-04-11T07:22:04.598Z,1004.36
2018-04-11T07:23:04.583Z,1004.45
2018-04-11T07:24:04.594Z,1004.89
2018-04-11T07:25:04.604Z,1004.85
2018-04-11T07:26:04.598Z,1004.86
2018-04-11T07:27:04.832Z,1005.76
2018-04-11T07:28:04.647Z,1005.79
2018-04-11T07:29:04.637Z,1006.03
2018-04-11T07:30:04.687Z,1005.20
2018-04-11T07:31:04.658Z,1004.51
2018-04-11T07:32:04.666Z,1004.10
2018-04-11T07:33:04.699Z,1003.99
2018-04-11T07:34:05.331Z,1003.97
2018-04-11T07:37:00.989Z,1003.93
2018-04-11T07:37:59.995Z,1003.97
2018-04-11T07:40:31.633Z,1004.16
2018-04-11T07:41:31.614Z,1004.30
2018-04-11T07:42:31.616Z,1004.53
2018-04-11T07:43:31.637Z,1004.83
2018-04-11T07:44:31.816Z,1004.82
2018-04-11T07:45:31.649Z,1004.95
2018-04-11T07:46:31.659Z,1005.02
2018-04-11T07:47:32.156Z,1005.09
2018-04-11T07:48:31.637Z,1005.14
2018-04-11T07:49:31.638Z,1005.21
2018-04-11T07:50:31.640Z,1005.30
2018-04-11T07:51:31.685Z,1005.23
2018-04-11T07:52:31.709Z,1005.24
2018-04-11T07:53:31.762Z,1005.30
2018-04-11T07:54:32.839Z,1005.40
2018-04-11T07:55:31.685Z,1005.31
2018-04-11T07:56:31.725Z,1005.67
2018-04-11T07:57:31.713Z,1005.72
2018-04-11T07:58:31.762Z,1005.18
2018-04-11T07:59:31.778Z,1005.34
2018-04-11T08:00:31.768Z,1005.35
2018-04-11T08:01:31.764Z,1005.46
2018-04-11T08:02:31.767Z,1006.16
2018-04-11T08:03:31.817Z,1006.35
2018-04-11T08:04:31.792Z,1006.35
2018-04-11T08:05:31.774Z,1006.27
2018-04-11T08:06:31.804Z,1006.39
2018-04-11T08:07:31.807Z,1006.74
2018-04-11T08:08:31.837Z,1006.77
2018-04-11T08:09:31.838Z,1006.91
2018-04-11T08:10:32.568Z,1007.21
2018-04-11T08:11:31.889Z,1007.15
2018-04-11T08:12:31.842Z,1006.42
2018-04-11T08:13:31.851Z,1007.49
2018-04-11T08:14:31.881Z,1007.82
2018-04-11T08:15:31.958Z,1008.47
2018-04-11T08:16:31.905Z,1008.29
2018-04-11T08:17:31.895Z,1008.10
2018-04-11T08:18:31.895Z,1008.43
2018-04-11T08:19:31.994Z,1008.65
2018-04-11T08:20:31.923Z,1009.22
2018-04-11T08:21:31.942Z,1009.60
2018-04-11T08:22:31.965Z,1009.71
2018-04-11T08:23:32.009Z,1009.27
2018-04-11T08:24:32.485Z,1009.02
2018-04-11T08:25:32.585Z,1009.22
2018-04-11T08:26:32.532Z,1009.67
2018-04-11T08:27:34.321Z,1009.80
2018-04-11T08:28:32.136Z,1010.36
2018-04-11T08:29:32.014Z,1010.13
2018-04-11T08:30:32.080Z,1009.99
2018-04-11T08:31:32.574Z,1010.40
2018-04-11T08:32:32.064Z,1010.57
2018-04-11T08:33:32.078Z,1010.49
2018-04-11T08:34:32.070Z,1011.04
2018-04-11T08:35:32.095Z,1011.04
2018-04-11T08:36:32.116Z,1010.87
2018-04-11T08:37:32.100Z,1010.86
2018-04-11T08:38:32.114Z,1010.89
2018-04-11T08:39:32.140Z,1011.18
2018-04-11T08:40:32.378Z,1010.98
2018-04-11T08:41:32.218Z,1011.01
2018-04-11T08:42:32.754Z,1010.88
2018-04-11T08:43:32.201Z,1010.94
2018-04-11T08:44:32.257Z,1010.80
2018-04-11T08:45:32.244Z,1011.10
2018-04-11T08:46:32.208Z,1011.23
2018-04-11T08:47:32.318Z,1011.08
2018-04-11T08:48:35.483Z,1010.09
2018-04-11T08:49:32.533Z,1009.41
2018-04-11T08:50:32.613Z,1009.58
2018-04-11T08:51:32.385Z,1009.56
2018-04-11T08:52:32.405Z,1009.61
2018-04-11T08:53:32.373Z,1008.56
2018-04-11T08:54:32.346Z,1008.65
2018-04-11T08:55:32.489Z,1010.02
2018-04-11T08:56:32.369Z,1009.50
2018-04-11T08:57:33.106Z,1008.77
2018-04-11T08:58:32.502Z,1008.79
2018-04-11T08:59:32.619Z,1008.89
2018-04-11T09:00:32.601Z,1008.46
2018-04-11T09:01:32.472Z,1008.35
2018-04-11T09:02:32.537Z,1008.22
2018-04-11T09:03:32.537Z,1008.17
2018-04-11T09:04:32.702Z,1007.97
2018-04-11T09:05:32.627Z,1008.16
2018-04-11T09:06:32.537Z,1008.07
2018-04-11T09:07:32.683Z,1008.22
2018-04-11T09:08:32.668Z,1008.12
2018-04-11T09:09:32.811Z,1007.88
2018-04-11T09:10:33.117Z,1007.87
2018-04-11T09:11:32.784Z,1007.88
2018-04-11T09:12:33.110Z,1007.69
2018-04-11T09:13:32.643Z,1007.74
2018-04-11T09:14:32.668Z,1007.57
2018-04-11T09:15:32.728Z,1007.59
2018-04-11T09:16:32.838Z,1007.46
2018-04-11T09:17:32.799Z,1007.34
2018-04-11T09:18:33.466Z,1007.18
2018-04-11T09:19:32.763Z,1006.82
2018-04-11T09:20:32.836Z,1007.06
2018-04-11T09:21:32.702Z,1007.40
2018-04-11T09:22:32.821Z,1007.18
2018-04-11T09:23:32.965Z,1006.89
2018-04-11T09:24:32.854Z,1007.02
2018-04-11T09:25:32.823Z,1006.79
2018-04-11T09:26:32.902Z,1006.32
2018-04-11T09:27:33.619Z,1006.02
2018-04-11T09:28:32.789Z,1005.98
2018-04-11T09:29:33.622Z,1006.04
2018-04-11T09:30:32.882Z,1006.09
2018-04-11T09:31:32.822Z,1006.01
2018-04-11T09:32:32.994Z,1005.94
2018-04-11T09:33:32.976Z,1005.88
2018-04-11T09:34:33.608Z,1005.39
2018-04-11T09:35:33.525Z,1005.12
2018-04-11T09:36:33.127Z,1004.98
2018-04-11T09:37:33.055Z,1004.93
2018-04-11T09:38:32.977Z,1004.79
2018-04-11T09:39:33.019Z,1004.70
2018-04-11T09:40:33.335Z,1004.56
2018-04-11T09:41:33.149Z,1004.44
2018-04-11T09:42:33.624Z,1004.39
2018-04-11T09:43:33.158Z,1004.43
2018-04-11T09:45:33.123Z,1004.40
2018-04-11T09:46:33.187Z,1004.31
2018-04-11T09:47:33.152Z,1004.34
2018-04-11T09:48:33.171Z,1004.28
2018-04-11T09:49:33.219Z,1004.37
2018-04-11T09:50:33.339Z,1004.27
2018-04-11T09:51:33.185Z,1004.31
2018-04-11T09:52:33.245Z,1004.25
2018-04-11T09:53:33.247Z,1004.24
2018-04-11T09:54:33.222Z,1004.33
2018-04-11T09:55:33.923Z,1004.31
2018-04-11T09:56:33.433Z,1004.24
2018-04-11T09:57:34.201Z,1004.34
2018-04-11T09:58:33.804Z,1004.38
2018-04-11T09:59:33.391Z,1004.55
2018-04-11T10:00:33.309Z,1004.60
2018-04-11T10:01:33.344Z,1004.62
2018-04-11T10:02:33.505Z,1004.81
2018-04-11T10:03:33.343Z,1004.92
2018-04-11T10:04:33.365Z,1005.02
2018-04-11T10:05:33.389Z,1005.12
2018-04-11T10:06:34.142Z,1005.28
2018-04-11T10:07:35.147Z,1005.14
2018-04-11T10:08:33.454Z,1005.02
2018-04-11T10:09:33.487Z,1005.17
2018-04-11T10:10:33.471Z,1003.83
2018-04-11T10:11:33.595Z,1003.75
2018-04-11T10:12:33.524Z,1004.95
2018-04-11T10:13:33.505Z,1004.77
2018-04-11T10:14:33.600Z,1004.62
2018-04-11T10:15:33.556Z,1004.58
2018-04-11T10:16:33.563Z,1004.49
2018-04-11T10:17:33.668Z,1004.30
2018-04-11T10:18:33.615Z,1004.26
2018-04-11T10:19:34.150Z,1004.30
2018-04-11T10:20:33.606Z,1004.23
2018-04-11T10:21:33.709Z,1004.13
2018-04-11T10:22:33.667Z,1004.09
2018-04-11T10:23:33.709Z,1004.03
2018-04-11T10:24:33.680Z,1003.61
2018-04-11T10:25:33.690Z,1003.93
2018-04-11T10:26:33.751Z,1003.23
2018-04-11T10:27:33.813Z,1004.16
2018-04-11T10:28:33.826Z,1003.46
2018-04-11T10:29:34.672Z,1003.95
2018-04-11T10:30:33.817Z,1004.08
2018-04-11T10:31:34.669Z,1003.48
2018-04-11T10:32:33.919Z,1004.18
2018-04-11T10:33:33.894Z,1003.98
2018-04-11T10:34:33.875Z,1003.99
2018-04-11T10:35:33.953Z,1003.61
2018-04-11T10:36:33.984Z,1003.45
2018-04-11T10:37:33.939Z,1003.23
2018-04-11T10:38:33.940Z,1003.29
2018-04-11T10:39:34.027Z,1003.35
2018-04-11T10:40:33.986Z,1003.25
2018-04-11T10:41:34.067Z,1002.89
2018-04-11T10:42:33.973Z,1002.90
2018-04-11T10:43:34.102Z,1002.87
2018-04-11T10:44:34.208Z,1002.72
2018-04-11T10:45:34.049Z,1002.87
2018-04-11T10:46:34.668Z,1002.64
2018-04-11T10:47:34.082Z,1002.61
2018-04-11T10:48:34.076Z,1002.70
2018-04-11T10:49:34.056Z,1002.70
2018-04-11T10:50:34.178Z,1002.50
2018-04-11T10:51:34.129Z,1002.43
2018-04-11T10:52:34.177Z,1002.38
2018-04-11T10:53:34.254Z,1002.43
2018-04-11T10:54:34.215Z,1002.41
2018-04-11T10:57:46.613Z,1002.38
